createdAt,value
2018-09-10T00:01:21.185Z,5.60
2018-09-10T00:03:50.272Z,5.70
2018-09-10T00:06:19.343Z,5.47
2018-09-10T00:08:50.045Z,6.85
2018-09-10T00:11:20.199Z,5.97
2018-09-10T00:13:49.434Z,7.83
2018-09-10T00:16:18.593Z,5.55
2018-09-10T00:18:47.663Z,7.27
2018-09-10T00:21:16.741Z,6.08
2018-09-10T00:23:45.787Z,6.78
2018-09-10T00:26:14.950Z,6.37
2018-09-10T00:28:44.059Z,6.03
2018-09-10T00:31:13.157Z,6.17
2018-09-10T00:33:42.245Z,6.67
2018-09-10T00:36:11.341Z,5.97
2018-09-10T00:38:40.463Z,5.87
2018-09-10T00:41:09.605Z,12.53
2018-09-10T00:43:38.707Z,8.20
2018-09-10T00:46:08.017Z,6.20
2018-09-10T00:48:37.184Z,5.50
2018-09-10T00:51:06.431Z,7.13
2018-09-10T00:53:35.568Z,6.30
2018-09-10T00:56:04.694Z,9.40
2018-09-10T00:58:34.425Z,7.03
2018-09-10T01:01:04.125Z,6.50
2018-09-10T01:03:34.171Z,6.47
2018-09-10T01:06:04.279Z,6.55
2018-09-10T01:08:34.196Z,6.87
2018-09-10T01:11:04.311Z,5.72
2018-09-10T01:13:34.274Z,10.83
2018-09-10T01:16:04.260Z,6.00
2018-09-10T01:18:33.412Z,5.87
2018-09-10T01:21:03.121Z,5.60
2018-09-10T01:23:32.747Z,10.07
2018-09-10T01:26:02.637Z,5.77
2018-09-10T01:28:32.264Z,6.03
2018-09-10T01:31:01.345Z,9.37
2018-09-10T01:33:35.783Z,6.30
2018-09-10T01:36:04.967Z,6.10
2018-09-10T01:38:34.477Z,6.00
2018-09-10T01:41:04.401Z,7.85
2018-09-10T01:43:34.426Z,8.88
2018-09-10T01:46:04.683Z,6.47
2018-09-10T01:48:34.552Z,5.53
2018-09-10T01:51:04.626Z,5.90
2018-09-10T01:53:34.773Z,6.25
2018-09-10T01:56:05.343Z,5.40
2018-09-10T01:58:34.581Z,5.50
2018-09-10T02:01:04.651Z,6.50
2018-09-10T02:03:34.617Z,6.63
2018-09-10T02:06:04.715Z,6.78
2018-09-10T02:08:34.656Z,5.53
2018-09-10T02:11:04.767Z,5.43
2018-09-10T02:13:34.913Z,5.97
2018-09-10T02:16:04.785Z,6.00
2018-09-10T02:18:34.734Z,6.20
2018-09-10T02:21:04.830Z,6.97
2018-09-10T02:23:34.949Z,4.97
2018-09-10T02:26:04.915Z,5.10
2018-09-10T02:28:35.041Z,6.22
2018-09-10T02:31:05.370Z,10.70
2018-09-10T02:33:34.981Z,5.70
2018-09-10T02:36:05.218Z,5.20
2018-09-10T02:38:35.084Z,8.48
2018-09-10T02:41:04.961Z,6.60
2018-09-10T02:51:09.388Z,5.13
2018-09-10T02:53:39.215Z,6.50
2018-09-10T02:56:09.660Z,4.90
2018-09-10T02:58:39.898Z,6.40
2018-09-10T03:01:09.780Z,7.50
2018-09-10T03:03:41.916Z,5.70
2018-09-10T03:06:12.042Z,6.28
2018-09-10T03:21:52.752Z,5.73
2018-09-10T03:24:22.326Z,6.83
2018-09-10T03:26:53.098Z,5.87
2018-09-10T03:29:22.884Z,5.80
2018-09-10T03:31:52.555Z,12.68
2018-09-10T03:34:22.634Z,6.95
2018-09-10T03:36:52.256Z,10.67
2018-09-10T03:39:22.928Z,9.60
2018-09-10T03:41:53.481Z,5.80
2018-09-10T03:44:24.076Z,16.40
2018-09-10T03:46:54.938Z,10.90
2018-09-10T03:49:24.250Z,6.60
2018-09-10T03:51:55.382Z,8.55
2018-09-10T03:54:26.622Z,14.63
2018-09-10T03:56:57.967Z,8.00
2018-09-10T03:59:27.960Z,7.67
2018-09-10T04:01:59.092Z,8.40
2018-09-10T04:04:28.914Z,11.10
2018-09-10T04:06:59.272Z,9.90
2018-09-10T04:22:47.034Z,11.20
2018-09-10T04:25:16.661Z,13.50
2018-09-10T04:27:46.721Z,10.33
2018-09-10T04:32:54.675Z,12.37
2018-09-10T04:35:27.104Z,13.67
2018-09-10T04:37:58.103Z,14.03
2018-09-10T04:40:27.536Z,18.23
2018-09-10T04:42:57.394Z,14.57
2018-09-10T04:45:27.767Z,12.37
2018-09-10T04:48:00.274Z,12.80
2018-09-10T04:50:29.446Z,9.80
2018-09-10T04:53:00.697Z,10.10
2018-09-10T04:55:30.913Z,11.23
2018-09-10T04:58:03.523Z,10.80
2018-09-10T05:00:32.796Z,7.33
2018-09-10T05:03:02.904Z,8.17
2018-09-10T05:05:32.580Z,11.00
2018-09-10T05:08:01.752Z,10.70
2018-09-10T05:10:31.835Z,8.87
2018-09-10T05:13:01.165Z,8.30
2018-09-10T05:15:33.515Z,9.90
2018-09-10T05:18:03.972Z,9.97
2018-09-10T05:20:36.602Z,7.77
2018-09-10T05:23:07.783Z,8.07
2018-09-10T05:25:39.901Z,8.60
2018-09-10T05:28:10.868Z,8.97
2018-09-10T05:30:41.638Z,7.10
2018-09-10T05:33:13.944Z,8.73
2018-09-10T05:35:49.989Z,8.33
2018-09-10T05:38:22.757Z,12.68
2018-09-10T05:40:57.661Z,9.53
2018-09-10T05:43:42.054Z,7.17
2018-09-10T05:46:12.581Z,8.15
2018-09-10T05:48:42.537Z,8.13
2018-09-10T05:51:13.109Z,8.37
2018-09-10T05:53:43.411Z,7.33
2018-09-10T05:58:42.601Z,8.83
2018-09-10T06:01:12.217Z,12.73
2018-09-10T06:03:41.881Z,9.03
2018-09-10T06:06:11.351Z,8.70
2018-09-10T06:53:37.385Z,11.33
2018-09-10T06:56:08.327Z,14.23
2018-09-10T06:58:40.306Z,10.87
2018-09-10T07:01:09.634Z,13.40
2018-09-10T07:03:40.398Z,12.90
2018-09-10T07:06:10.763Z,12.40
2018-09-10T07:08:40.007Z,11.63
2018-09-10T07:11:10.543Z,14.77
2018-09-10T07:13:41.479Z,15.00
2018-09-10T07:19:05.839Z,14.63
2018-09-10T07:21:35.024Z,13.93
2018-09-10T07:24:04.764Z,14.43
2018-09-10T07:26:37.357Z,16.30
2018-09-10T07:29:11.304Z,17.20
2018-09-10T07:31:40.569Z,20.40
2018-09-10T07:34:11.360Z,12.83
2018-09-10T07:36:40.787Z,13.40
2018-09-10T07:39:11.260Z,17.00
2018-09-10T07:41:40.924Z,16.50
2018-09-10T07:44:10.116Z,13.60
2018-09-10T07:46:39.553Z,17.23
2018-09-10T07:49:09.153Z,13.70
2018-09-10T07:51:39.841Z,19.90
2018-09-10T07:54:11.740Z,14.30
2018-09-10T07:56:42.757Z,15.97
2018-09-10T07:59:12.079Z,13.33
2018-09-10T08:01:41.293Z,14.03
2018-09-10T08:04:10.547Z,11.97
2018-09-10T08:06:39.826Z,15.03
2018-09-10T08:09:10.092Z,12.50
2018-09-10T08:11:39.423Z,13.90
2018-09-10T08:14:09.366Z,15.45
2018-09-10T08:16:38.921Z,12.75
2018-09-10T08:34:52.773Z,13.80
2018-09-10T08:37:24.557Z,11.12
2018-09-10T08:39:56.571Z,11.00
2018-09-10T08:42:28.551Z,12.05
2018-09-10T08:44:58.177Z,10.90
2018-09-10T08:47:31.696Z,10.10
2018-09-10T08:50:11.316Z,11.47
2018-09-10T08:52:40.876Z,10.07
2018-09-10T08:55:10.266Z,10.70
2018-09-10T08:57:41.144Z,8.67
2018-09-10T09:00:10.478Z,9.30
2018-09-10T09:02:39.659Z,9.23
2018-09-10T09:05:09.659Z,14.63
2018-09-10T09:07:40.954Z,9.47
2018-09-10T09:10:10.314Z,12.10
2018-09-10T09:12:39.502Z,8.93
2018-09-10T09:15:09.484Z,11.03
2018-09-10T09:17:39.186Z,7.33
2018-09-10T09:25:19.486Z,10.27
2018-09-10T09:27:55.552Z,9.88
2018-09-10T09:30:24.737Z,8.90
2018-09-10T09:32:54.310Z,8.85
2018-09-10T09:35:28.764Z,6.92
2018-09-10T09:38:03.610Z,7.47
2018-09-10T09:40:38.110Z,8.30
2018-09-10T09:43:12.433Z,6.70
2018-09-10T09:45:46.793Z,6.80
2018-09-10T09:48:15.974Z,9.50
2018-09-10T09:50:45.150Z,6.20
2018-09-10T09:53:14.357Z,6.37
2018-09-10T09:55:43.544Z,6.93
2018-09-10T09:58:17.086Z,7.70
2018-09-10T10:00:55.793Z,5.90
2018-09-10T10:03:30.066Z,6.23
2018-09-10T10:06:00.675Z,6.40
2018-09-10T10:08:29.954Z,6.17
2018-09-10T10:10:59.474Z,8.10
2018-09-10T10:13:30.593Z,9.37
2018-09-10T10:15:59.785Z,10.43
2018-09-10T10:18:29.003Z,6.00
2018-09-10T10:20:58.549Z,9.33
2018-09-10T10:23:28.618Z,5.77
2018-09-10T10:25:58.160Z,10.83
2018-09-10T10:28:29.204Z,9.13
2018-09-10T10:30:58.756Z,7.57
2018-09-10T10:33:28.014Z,8.60
2018-09-10T10:35:57.490Z,6.95
2018-09-10T10:38:26.806Z,7.47
2018-09-10T10:40:57.238Z,7.50
2018-09-10T10:43:27.033Z,6.05
2018-09-10T10:45:56.884Z,6.70
2018-09-10T10:48:29.297Z,7.50
2018-09-10T10:50:59.978Z,8.50
2018-09-10T11:17:20.942Z,5.00
2018-09-10T11:19:50.592Z,6.80
2018-09-10T11:22:20.412Z,6.43
2018-09-10T11:24:50.040Z,5.53
2018-09-10T11:27:19.652Z,5.65
2018-09-10T11:29:49.188Z,4.67
2018-09-10T11:32:18.820Z,4.90
2018-09-10T11:34:48.558Z,4.40
2018-09-10T11:37:19.258Z,7.60
2018-09-10T11:40:06.766Z,5.67
2018-09-10T11:42:35.952Z,7.60
2018-09-10T11:45:05.629Z,8.20
2018-09-10T11:47:34.970Z,4.77
2018-09-10T11:50:05.441Z,6.10
2018-09-10T11:52:34.701Z,4.40
2018-09-10T11:55:04.015Z,5.20
2018-09-10T11:57:33.222Z,4.40
2018-09-10T12:00:02.965Z,4.27
2018-09-10T12:02:32.150Z,3.80
2018-09-10T12:05:01.406Z,4.43
2018-09-10T12:07:30.577Z,6.00
2018-09-10T12:10:00.924Z,4.67
2018-09-10T12:12:31.744Z,4.23
2018-09-10T12:15:01.474Z,4.70
2018-09-10T12:17:30.652Z,4.17
2018-09-10T12:20:00.219Z,5.93
2018-09-10T12:22:29.412Z,4.33
2018-09-10T12:24:58.954Z,3.73
2018-09-10T12:27:28.200Z,3.67
2018-09-10T12:29:57.789Z,3.73
2018-09-10T12:32:27.146Z,5.30
2018-09-10T12:34:56.810Z,6.92
2018-09-10T12:37:26.298Z,6.03
2018-09-10T12:39:55.899Z,4.10
2018-09-10T12:42:25.566Z,3.60
2018-09-10T12:44:55.217Z,5.00
2018-09-10T12:47:26.103Z,5.55
2018-09-10T12:49:55.804Z,4.40
2018-09-10T12:52:26.074Z,5.20
2018-09-10T12:54:55.644Z,5.00
2018-09-10T12:57:27.397Z,3.70
2018-09-10T12:59:57.320Z,3.40
2018-09-10T13:26:27.763Z,4.30
2018-09-10T13:28:58.240Z,4.13
2018-09-10T13:31:28.034Z,4.72
2018-09-10T13:33:57.895Z,4.35
2018-09-10T13:36:27.157Z,3.90
2018-09-10T13:38:57.087Z,5.67
2018-09-10T13:41:26.906Z,4.17
2018-09-10T13:43:57.630Z,4.43
2018-09-10T13:46:29.332Z,3.42
2018-09-10T13:48:59.536Z,5.50
2018-09-10T13:51:28.750Z,4.10
2018-09-10T13:53:59.176Z,4.53
2018-09-10T13:56:28.450Z,3.43
2018-09-10T13:58:57.998Z,8.70
2018-09-10T14:01:27.184Z,5.10
2018-09-10T14:03:56.946Z,4.70
2018-09-10T14:06:26.134Z,3.33
2018-09-10T14:08:56.147Z,3.60
2018-09-10T14:11:25.312Z,3.80
2018-09-10T14:13:54.869Z,5.08
2018-09-10T14:16:24.109Z,3.42
2018-09-10T14:18:53.842Z,3.33
2018-09-10T14:21:23.018Z,4.67
2018-09-10T14:23:52.143Z,2.92
2018-09-10T14:26:21.217Z,3.33
2018-09-10T14:28:50.508Z,3.97
2018-09-10T14:31:19.631Z,5.83
2018-09-10T14:33:48.732Z,4.58
2018-09-10T14:36:17.857Z,5.80
2018-09-10T14:38:46.999Z,4.50
2018-09-10T14:41:16.145Z,6.60
2018-09-10T14:43:45.256Z,4.00
2018-09-10T14:48:45.508Z,3.40
2018-09-10T14:51:14.644Z,3.53
2018-09-10T14:53:43.788Z,4.90
2018-09-10T14:56:13.119Z,3.83
2018-09-10T14:58:42.266Z,3.30
2018-09-10T15:01:11.985Z,3.52
2018-09-10T15:03:41.973Z,3.43
2018-09-10T15:06:11.976Z,3.10
2018-09-10T15:08:42.092Z,4.07
2018-09-10T15:11:12.169Z,3.52
2018-09-10T15:13:42.357Z,4.60
2018-09-10T15:16:13.111Z,5.07
2018-09-10T15:18:44.160Z,3.87
2018-09-10T15:21:13.284Z,3.40
2018-09-10T15:23:42.505Z,3.33
2018-09-10T15:26:12.282Z,4.53
2018-09-10T15:28:42.956Z,4.80
2018-09-10T15:31:12.258Z,3.10
2018-09-10T15:33:42.212Z,2.80
2018-09-10T15:36:12.124Z,4.50
2018-09-10T15:41:24.518Z,2.80
2018-09-10T15:43:53.717Z,7.30
2018-09-10T15:46:23.245Z,3.33
2018-09-10T15:48:54.239Z,3.27
2018-09-10T15:51:23.649Z,7.47
2018-09-10T15:53:54.919Z,4.50
2018-09-10T15:56:24.137Z,6.35
2018-09-10T15:58:53.595Z,3.73
2018-09-10T16:01:22.751Z,3.80
2018-09-10T16:03:52.009Z,3.17
2018-09-10T16:06:21.242Z,4.23
2018-09-10T16:08:50.545Z,2.40
2018-09-10T16:11:19.718Z,2.40
2018-09-10T16:13:49.194Z,5.22
2018-09-10T16:16:18.474Z,6.03
2018-09-10T16:18:47.680Z,2.87
2018-09-10T16:21:16.940Z,3.13
2018-09-10T16:23:46.230Z,2.80
2018-09-10T16:26:15.419Z,3.00
2018-09-10T16:28:44.625Z,2.70
2018-09-10T16:31:14.642Z,3.00
2018-09-10T16:33:45.575Z,4.17
2018-09-10T16:36:15.543Z,5.97
2018-09-10T16:38:44.754Z,5.00
2018-09-10T16:41:14.087Z,4.90
2018-09-10T16:43:43.394Z,3.40
2018-09-10T16:51:18.410Z,3.77
2018-09-10T16:53:47.609Z,4.53
2018-09-10T16:56:17.963Z,4.40
2018-09-10T16:58:48.733Z,5.30
2018-09-10T17:01:17.920Z,5.63
2018-09-10T17:03:47.131Z,5.03
2018-09-10T17:06:16.448Z,4.00
2018-09-10T17:08:46.360Z,3.40
2018-09-10T17:11:15.563Z,3.13
2018-09-10T17:13:44.654Z,4.20
2018-09-10T17:16:13.817Z,7.13
2018-09-10T17:18:43.561Z,5.73
2018-09-10T17:21:13.669Z,8.47
2018-09-10T17:23:43.697Z,6.33
2018-09-10T17:26:13.685Z,6.73
2018-09-10T17:28:45.581Z,7.20
2018-09-10T17:31:14.715Z,4.95
2018-09-10T17:33:43.809Z,5.10
2018-09-10T17:36:13.771Z,7.90
2018-09-10T17:38:43.858Z,4.97
2018-09-10T17:41:13.827Z,5.33
2018-09-10T17:43:43.696Z,3.57
2018-09-10T17:46:14.392Z,4.92
2018-09-10T17:48:43.728Z,6.07
2018-09-10T17:51:13.775Z,5.77
2018-09-10T17:53:44.003Z,5.23
2018-09-10T17:56:13.900Z,5.20
2018-09-10T17:58:43.974Z,5.15
2018-09-10T18:01:13.984Z,13.35
2018-09-10T18:03:44.071Z,5.00
2018-09-10T18:06:14.231Z,4.53
2018-09-10T18:08:44.355Z,6.33
2018-09-10T18:11:13.974Z,12.20
2018-09-10T18:13:44.168Z,11.97
2018-09-10T18:16:13.971Z,7.37
2018-09-10T18:18:45.336Z,6.57
2018-09-10T18:21:14.715Z,16.57
2018-09-10T18:23:44.967Z,6.72
2018-09-10T18:26:14.829Z,9.30
2018-09-10T18:28:44.291Z,9.00
2018-09-10T18:31:14.321Z,6.10
2018-09-10T18:33:44.846Z,7.33
2018-09-10T18:36:14.822Z,10.50
2018-09-10T18:38:45.098Z,4.80
2018-09-10T18:41:14.512Z,4.97
2018-09-10T18:43:44.578Z,10.80
2018-09-10T18:46:14.652Z,3.40
2018-09-10T18:48:44.979Z,7.40
2018-09-10T18:51:15.231Z,4.12
2018-09-10T18:53:44.650Z,3.87
2018-09-10T18:56:15.321Z,6.75
2018-09-10T18:58:44.740Z,12.27
2018-09-10T19:01:14.945Z,4.37
2018-09-10T19:03:45.220Z,6.37
2018-09-10T19:06:14.728Z,6.63
2018-09-10T19:08:44.641Z,16.37
2018-09-10T19:11:15.011Z,36.58
2018-09-10T19:13:45.236Z,13.03
2018-09-10T19:16:15.016Z,11.90
2018-09-10T19:18:45.308Z,6.53
2018-09-10T19:21:15.063Z,6.83
2018-09-10T19:23:44.872Z,4.87
2018-09-10T19:26:14.927Z,6.77
2018-09-10T19:28:45.629Z,4.50
2018-09-10T19:31:15.076Z,13.43
2018-09-10T19:33:44.898Z,6.22
2018-09-10T19:36:15.307Z,10.90
2018-09-10T19:38:44.902Z,9.80
2018-09-10T19:41:15.481Z,6.00
2018-09-10T19:43:46.131Z,5.67
2018-09-10T19:46:15.764Z,12.73
2018-09-10T19:48:45.788Z,5.30
2018-09-10T19:51:15.248Z,8.83
2018-09-10T19:53:45.630Z,4.73
2018-09-10T19:56:15.445Z,6.12
2018-09-10T19:58:45.256Z,4.60
2018-09-10T20:01:15.629Z,6.47
2018-09-10T20:03:45.761Z,5.77
2018-09-10T20:06:15.264Z,6.10
2018-09-10T20:08:45.089Z,5.45
2018-09-10T20:11:15.126Z,5.78
2018-09-10T20:13:45.739Z,6.37
2018-09-10T20:16:15.159Z,5.72
2018-09-10T20:18:45.110Z,5.07
2018-09-10T20:21:16.358Z,4.72
2018-09-10T20:23:45.499Z,7.53
2018-09-10T20:26:15.125Z,5.83
2018-09-10T20:28:45.146Z,10.30
2018-09-10T20:31:15.308Z,5.20
2018-09-10T20:33:50.407Z,7.60
2018-09-10T20:36:19.647Z,6.70
2018-09-10T20:38:48.763Z,7.80
2018-09-10T20:41:18.369Z,6.60
2018-09-10T20:43:47.490Z,7.67
2018-09-10T20:46:16.645Z,6.07
2018-09-10T20:48:45.747Z,6.73
2018-09-10T20:51:15.374Z,8.35
2018-09-10T20:53:45.480Z,7.13
2018-09-10T20:56:15.370Z,5.10
2018-09-10T20:58:45.444Z,10.47
2018-09-10T21:01:15.458Z,6.90
2018-09-10T21:03:45.384Z,4.40
2018-09-10T21:06:15.418Z,5.80
2018-09-10T21:08:45.370Z,6.17
2018-09-10T21:11:15.527Z,6.00
2018-09-10T21:13:45.480Z,7.00
2018-09-10T21:16:15.554Z,7.67
2018-09-10T21:18:45.566Z,6.03
2018-09-10T21:21:15.573Z,6.60
2018-09-10T21:23:45.714Z,5.27
2018-09-10T21:26:15.647Z,6.30
2018-09-10T21:28:45.781Z,8.93
2018-09-10T21:31:15.687Z,10.80
2018-09-10T21:33:45.880Z,6.40
2018-09-10T21:36:15.701Z,6.53
2018-09-10T21:38:45.768Z,4.90
2018-09-10T21:41:15.786Z,6.40
2018-09-10T21:43:45.843Z,5.83
2018-09-10T21:46:15.698Z,7.20
2018-09-10T21:48:44.810Z,7.57
2018-09-10T21:51:13.929Z,5.47
2018-09-10T21:53:43.022Z,6.43
2018-09-10T21:56:12.094Z,5.70
2018-09-10T21:58:41.184Z,9.40
2018-09-10T22:01:10.318Z,6.27
2018-09-10T22:03:39.434Z,9.83
2018-09-10T22:06:08.480Z,7.60
2018-09-10T22:08:37.570Z,10.03
2018-09-10T22:11:06.722Z,10.13
2018-09-10T22:13:35.875Z,10.83
2018-09-10T22:16:04.937Z,5.17
2018-09-10T22:18:34.052Z,5.90
2018-09-10T22:21:03.122Z,9.70
2018-09-10T22:23:32.217Z,8.80
2018-09-10T22:26:01.335Z,8.20
2018-09-10T22:28:30.450Z,12.10
2018-09-10T22:30:59.571Z,7.03
2018-09-10T22:33:28.693Z,10.63
2018-09-10T22:35:57.753Z,8.97
2018-09-10T22:38:26.846Z,6.80
2018-09-10T22:40:55.950Z,5.97
2018-09-10T22:43:25.068Z,8.50
2018-09-10T22:45:54.174Z,7.27
2018-09-10T22:48:23.311Z,9.70
2018-09-10T22:50:52.503Z,7.70
2018-09-10T22:53:21.577Z,6.53
2018-09-10T22:55:50.705Z,10.37
2018-09-10T22:58:19.812Z,8.70
2018-09-10T23:00:48.891Z,9.30
2018-09-10T23:03:17.958Z,7.53
2018-09-10T23:05:47.056Z,10.43
2018-09-10T23:08:16.429Z,19.83
2018-09-10T23:10:46.551Z,11.48
2018-09-10T23:13:16.426Z,7.10
2018-09-10T23:15:46.580Z,13.68
2018-09-10T23:18:16.719Z,7.92
2018-09-10T23:20:46.566Z,7.43
2018-09-10T23:23:16.584Z,7.47
2018-09-10T23:25:46.595Z,9.20
2018-09-10T23:28:16.946Z,10.70
2018-09-10T23:30:46.702Z,9.50
2018-09-10T23:33:16.634Z,7.13
2018-09-10T23:35:46.710Z,8.40
2018-09-10T23:38:16.774Z,7.67
2018-09-10T23:40:46.764Z,11.43
2018-09-10T23:43:16.898Z,11.95
2018-09-10T23:45:46.782Z,10.55
2018-09-10T23:48:16.926Z,9.68
2018-09-10T23:50:47.072Z,7.85
2018-09-10T23:53:16.834Z,9.50
2018-09-10T23:55:46.853Z,10.73
2018-09-10T23:58:16.948Z,8.80
